Torm Amalie — 9V8552 — position and weather

sailwx.info

Track history (hours):
 
Tides and Currents Weather Stations Pressure Air Temp Water Temp Dewpoint Dewpoint Depression Visibility Wind Speed Wind Dir Waves Ship Positions

Torm Amalie

Last reported at 2017-Nov-18 05:18 UTC. Time now 2017-Nov-18 06:31 UTC.
Position N 50°23' E 000°32'.

Length 183 m; draft 10 m.

Type: Ship. MMSI: 564081000.

Date/timePositionNaut miles runAvg speedWind from/ knotsBaromVisibWave heightAir tempDewpointWater temp
2017-Nov-18 05:18N 50°23' E 000°32'512.3
2017-Nov-18 04:56N 50°22' E 000°25'512.1
2017-Nov-18 04:30N 50°21' E 000°17'611.9
2017-Nov-18 04:00N 50°20' E 000°08'611.6
2017-Nov-18 03:30N 50°17' E 000°01'1912.1
2017-Nov-18 01:56N 49°58' W 000°04'512.6
2017-Nov-18 01:30N 49°52' W 000°04'612.7
2017-Nov-18 01:00N 49°46' W 000°04'612.6
2017-Nov-18 00:30N 49°40' W 000°05'612.9
2017-Nov-18 00:00N 49°33' W 000°06'510.3
2017-Nov-17 23:30N 49°30' E 000°00'611.1
2017-Nov-17 23:00N 49°28' E 000°08'1 2.7
2017-Nov-17 22:30N 49°29' E 000°10'1 1.5
2017-Nov-17 22:00N 49°29' E 000°12'0 0.8
2017-Nov-17 21:29N 49°29' E 000°12'0 0.0
2017-Nov-17 20:56N 49°29' E 000°12'0 0.0
2017-Nov-17 20:29N 49°29' E 000°12'0 0.0
2017-Nov-17 19:59N 49°29' E 000°12'0 0.0
2017-Nov-17 19:29N 49°29' E 000°12'0 0.0
2017-Nov-17 18:59N 49°29' E 000°12'0 0.0
2017-Nov-17 18:29N 49°29' E 000°12'0 0.0
2017-Nov-17 17:59N 49°29' E 000°12'0 0.0
2017-Nov-17 17:29N 49°29' E 000°12'0 0.0
2017-Nov-17 16:59N 49°29' E 000°12'0 0.0
2017-Nov-17 16:29N 49°29' E 000°12'0 0.0
2017-Nov-17 15:59N 49°29' E 000°12'0 0.0
2017-Nov-17 15:29N 49°29' E 000°12'0 0.0
2017-Nov-17 14:59N 49°29' E 000°12'0 0.0
2017-Nov-17 14:29N 49°29' E 000°12'0 0.0
2017-Nov-17 13:59N 49°29' E 000°12'0 0.0
2017-Nov-17 13:29N 49°29' E 000°12'0 0.0
2017-Nov-17 12:59N 49°29' E 000°12'0 0.0
2017-Nov-17 12:29N 49°29' E 000°12'0 0.0
2017-Nov-17 11:59N 49°29' E 000°12'0 0.0
2017-Nov-17 11:29N 49°29' E 000°12'0 0.0
2017-Nov-17 10:59N 49°29' E 000°12'0 0.0
2017-Nov-17 10:29N 49°29' E 000°12'0 0.0
2017-Nov-17 09:59N 49°29' E 000°12'0 0.0
2017-Nov-17 09:29N 49°29' E 000°12'0 0.0
2017-Nov-17 08:59N 49°29' E 000°12'0 0.0
2017-Nov-17 08:26N 49°29' E 000°12'0 0.0
2017-Nov-17 07:56N 49°29' E 000°12'0 0.0
2017-Nov-17 07:29N 49°29' E 000°12'0 0.0
2017-Nov-17 06:59N 49°29' E 000°12'0 0.0
2017-Nov-17 06:29N 49°29' E 000°12'0 0.0
2017-Nov-17 05:59N 49°29' E 000°12'0 0.0
2017-Nov-17 05:26N 49°29' E 000°12'0 0.0
2017-Nov-17 04:59N 49°29' E 000°12'0 0.0
2017-Nov-17 04:29N 49°29' E 000°12'0 0.0
2017-Nov-17 03:59N 49°29' E 000°12'0 0.0
2017-Nov-17 03:29N 49°29' E 000°12'0 0.0
2017-Nov-17 02:59N 49°29' E 000°12'0 0.3
2017-Nov-17 02:31N 49°28' E 000°12'1 2.3
2017-Nov-17 02:01N 49°29' E 000°10'0 0.2
2017-Nov-17 01:30N 49°29' E 000°10'2 4.8
2017-Nov-17 01:01N 49°29' E 000°06'611.0
2017-Nov-17 00:30N 49°31' W 000°02'510.9
2017-Nov-17 00:00N 49°32' W 000°10'5 9.5
2017-Nov-16 23:30N 49°36' W 000°14'0 0.3
2017-Nov-16 23:00N 49°36' W 000°14'0 0.3
2017-Nov-16 22:30N 49°36' W 000°14'0 0.0
2017-Nov-16 22:00N 49°36' W 000°14'0 0.0
2017-Nov-16 21:30N 49°36' W 000°14'0 0.0
2017-Nov-16 21:00N 49°36' W 000°14'0 0.0
2017-Nov-16 20:30N 49°36' W 000°14'0 0.0
2017-Nov-16 19:57N 49°36' W 000°14'0 0.0
2017-Nov-16 19:30N 49°36' W 000°14'0 0.0
2017-Nov-16 19:00N 49°36' W 000°14'0 0.1
2017-Nov-16 18:30N 49°36' W 000°14'1 1.3
2017-Nov-16 18:00N 49°36' W 000°15'4 8.3
2017-Nov-16 17:30N 49°37' W 000°21'714.0
2017-Nov-16 17:00N 49°39' W 000°31'714.4
2017-Nov-16 16:31N 49°43' W 000°41'714.0
2017-Nov-16 16:00N 49°47' W 000°50'713.5
2017-Nov-16 15:30N 49°50' W 000°59'612.6
2017-Nov-16 15:00N 49°53' W 001°08'611.3
2017-Nov-16 14:30N 49°55' W 001°16'510.9
2017-Nov-16 14:01N 49°56' W 001°24'510.4
2017-Nov-16 13:31N 49°57' W 001°32'510.2
2017-Nov-16 13:00N 49°59' W 001°39'5 9.5
2017-Nov-16 12:30N 49°59' W 001°47'5 9.6
2017-Nov-16 12:01N 49°58' W 001°54'5 9.7
2017-Nov-16 11:30N 49°57' W 002°01'510.4
2017-Nov-16 11:00N 49°55' W 002°09'611.2
2017-Nov-16 10:27N 49°54' W 002°18'711.8
2017-Nov-16 09:52N 49°52' W 002°29'412.3
2017-Nov-16 09:30N 49°51' W 002°35'712.5
2017-Nov-16 08:58N 49°50' W 002°45'612.8
2017-Nov-16 08:31N 49°48' W 002°54'713.0
2017-Nov-16 07:59N 49°46' W 003°04'613.2
2017-Nov-16 07:30N 49°43' W 003°14'813.3
2017-Nov-16 06:55N 49°40' W 003°24'613.3
2017-Nov-16 06:26N 49°38' W 003°34'613.5
2017-Nov-16 05:58N 49°36' W 003°43'613.5
2017-Nov-16 05:30N 49°33' W 003°52'713.7
2017-Nov-16 05:00N 49°30' W 004°02'713.9
2017-Nov-16 04:31N 49°27' W 004°11'714.0
2017-Nov-16 04:00N 49°25' W 004°21'714.1
2017-Nov-16 03:30N 49°22' W 004°31'1214.1
2017-Nov-16 02:38N 49°19' W 004°49'214.0
2017-Nov-16 02:30N 49°18' W 004°52'813.9
2017-Nov-16 01:57N 49°15' W 005°02'713.9
2017-Nov-16 01:27N 49°12' W 005°12'713.7
2017-Nov-16 00:56N 49°10' W 005°22'613.5
2017-Nov-16 00:30N 49°08' W 005°31'713.4
2017-Nov-15 23:59N 49°05' W 005°41'713.0
2017-Nov-15 23:28N 49°03' W 005°50'712.8
2017-Nov-15 22:53N 48°60' W 006°01'512.5
2017-Nov-15 22:27N 48°58' W 006°08'612.1
2017-Nov-15 21:59N 48°56' W 006°16'712.0
2017-Nov-15 21:27N 48°54' W 006°26'611.8
2017-Nov-15 20:57N 48°53' W 006°34'511.7
2017-Nov-15 20:30N 48°51' W 006°42'1011.7
2017-Nov-15 19:39N 48°49' W 006°57'  
Track history (hours):
 
Tides and Currents Weather Stations Pressure Air Temp Water Temp Dewpoint Dewpoint Depression Visibility Wind Speed Wind Dir Waves Ship Positions

Torm Amalie

Last reported at 2017-Nov-18 05:18 UTC. Time now 2017-Nov-18 06:31 UTC.
Position N 50°23' E 000°32'.

Length 183 m; draft 10 m.

Type: Ship. MMSI: 564081000.

Date/timePositionNaut miles runAvg speedWind from/ knotsBaromVisibWave heightAir tempDewpointWater temp
2017-Nov-18 05:18N 50°23' E 000°32'512.3
2017-Nov-18 04:56N 50°22' E 000°25'512.1
2017-Nov-18 04:30N 50°21' E 000°17'611.9
2017-Nov-18 04:00N 50°20' E 000°08'611.6
2017-Nov-18 03:30N 50°17' E 000°01'1912.1
2017-Nov-18 01:56N 49°58' W 000°04'512.6
2017-Nov-18 01:30N 49°52' W 000°04'612.7
2017-Nov-18 01:00N 49°46' W 000°04'612.6
2017-Nov-18 00:30N 49°40' W 000°05'612.9
2017-Nov-18 00:00N 49°33' W 000°06'510.3
2017-Nov-17 23:30N 49°30' E 000°00'611.1
2017-Nov-17 23:00N 49°28' E 000°08'1 2.7
2017-Nov-17 22:30N 49°29' E 000°10'1 1.5
2017-Nov-17 22:00N 49°29' E 000°12'0 0.8
2017-Nov-17 21:29N 49°29' E 000°12'0 0.0
2017-Nov-17 20:56N 49°29' E 000°12'0 0.0
2017-Nov-17 20:29N 49°29' E 000°12'0 0.0
2017-Nov-17 19:59N 49°29' E 000°12'0 0.0
2017-Nov-17 19:29N 49°29' E 000°12'0 0.0
2017-Nov-17 18:59N 49°29' E 000°12'0 0.0
2017-Nov-17 18:29N 49°29' E 000°12'0 0.0
2017-Nov-17 17:59N 49°29' E 000°12'0 0.0
2017-Nov-17 17:29N 49°29' E 000°12'0 0.0
2017-Nov-17 16:59N 49°29' E 000°12'0 0.0
2017-Nov-17 16:29N 49°29' E 000°12'0 0.0
2017-Nov-17 15:59N 49°29' E 000°12'0 0.0
2017-Nov-17 15:29N 49°29' E 000°12'0 0.0
2017-Nov-17 14:59N 49°29' E 000°12'0 0.0
2017-Nov-17 14:29N 49°29' E 000°12'0 0.0
2017-Nov-17 13:59N 49°29' E 000°12'0 0.0
2017-Nov-17 13:29N 49°29' E 000°12'0 0.0
2017-Nov-17 12:59N 49°29' E 000°12'0 0.0
2017-Nov-17 12:29N 49°29' E 000°12'0 0.0
2017-Nov-17 11:59N 49°29' E 000°12'0 0.0
2017-Nov-17 11:29N 49°29' E 000°12'0 0.0
2017-Nov-17 10:59N 49°29' E 000°12'0 0.0
2017-Nov-17 10:29N 49°29' E 000°12'0 0.0
2017-Nov-17 09:59N 49°29' E 000°12'0 0.0
2017-Nov-17 09:29N 49°29' E 000°12'0 0.0
2017-Nov-17 08:59N 49°29' E 000°12'0 0.0
2017-Nov-17 08:26N 49°29' E 000°12'0 0.0
2017-Nov-17 07:56N 49°29' E 000°12'0 0.0
2017-Nov-17 07:29N 49°29' E 000°12'0 0.0
2017-Nov-17 06:59N 49°29' E 000°12'0 0.0
2017-Nov-17 06:29N 49°29' E 000°12'0 0.0
2017-Nov-17 05:59N 49°29' E 000°12'0 0.0
2017-Nov-17 05:26N 49°29' E 000°12'0 0.0
2017-Nov-17 04:59N 49°29' E 000°12'0 0.0
2017-Nov-17 04:29N 49°29' E 000°12'0 0.0
2017-Nov-17 03:59N 49°29' E 000°12'0 0.0
2017-Nov-17 03:29N 49°29' E 000°12'0 0.0
2017-Nov-17 02:59N 49°29' E 000°12'0 0.3
2017-Nov-17 02:31N 49°28' E 000°12'1 2.3
2017-Nov-17 02:01N 49°29' E 000°10'0 0.2
2017-Nov-17 01:30N 49°29' E 000°10'2 4.8
2017-Nov-17 01:01N 49°29' E 000°06'611.0
2017-Nov-17 00:30N 49°31' W 000°02'510.9
2017-Nov-17 00:00N 49°32' W 000°10'5 9.5
2017-Nov-16 23:30N 49°36' W 000°14'0 0.3
2017-Nov-16 23:00N 49°36' W 000°14'0 0.3
2017-Nov-16 22:30N 49°36' W 000°14'0 0.0
2017-Nov-16 22:00N 49°36' W 000°14'0 0.0
2017-Nov-16 21:30N 49°36' W 000°14'0 0.0
2017-Nov-16 21:00N 49°36' W 000°14'0 0.0
2017-Nov-16 20:30N 49°36' W 000°14'0 0.0
2017-Nov-16 19:57N 49°36' W 000°14'0 0.0
2017-Nov-16 19:30N 49°36' W 000°14'0 0.0
2017-Nov-16 19:00N 49°36' W 000°14'0 0.1
2017-Nov-16 18:30N 49°36' W 000°14'1 1.3
2017-Nov-16 18:00N 49°36' W 000°15'4 8.3
2017-Nov-16 17:30N 49°37' W 000°21'714.0
2017-Nov-16 17:00N 49°39' W 000°31'714.4
2017-Nov-16 16:31N 49°43' W 000°41'714.0
2017-Nov-16 16:00N 49°47' W 000°50'713.5
2017-Nov-16 15:30N 49°50' W 000°59'612.6
2017-Nov-16 15:00N 49°53' W 001°08'611.3
2017-Nov-16 14:30N 49°55' W 001°16'510.9
2017-Nov-16 14:01N 49°56' W 001°24'510.4
2017-Nov-16 13:31N 49°57' W 001°32'510.2
2017-Nov-16 13:00N 49°59' W 001°39'5 9.5
2017-Nov-16 12:30N 49°59' W 001°47'5 9.6
2017-Nov-16 12:01N 49°58' W 001°54'5 9.7
2017-Nov-16 11:30N 49°57' W 002°01'510.4
2017-Nov-16 11:00N 49°55' W 002°09'611.2
2017-Nov-16 10:27N 49°54' W 002°18'711.8
2017-Nov-16 09:52N 49°52' W 002°29'412.3
2017-Nov-16 09:30N 49°51' W 002°35'712.5
2017-Nov-16 08:58N 49°50' W 002°45'612.8
2017-Nov-16 08:31N 49°48' W 002°54'713.0
2017-Nov-16 07:59N 49°46' W 003°04'613.2
2017-Nov-16 07:30N 49°43' W 003°14'813.3
2017-Nov-16 06:55N 49°40' W 003°24'613.3
2017-Nov-16 06:26N 49°38' W 003°34'613.5
2017-Nov-16 05:58N 49°36' W 003°43'613.5
2017-Nov-16 05:30N 49°33' W 003°52'713.7
2017-Nov-16 05:00N 49°30' W 004°02'713.9
2017-Nov-16 04:31N 49°27' W 004°11'714.0
2017-Nov-16 04:00N 49°25' W 004°21'714.1
2017-Nov-16 03:30N 49°22' W 004°31'1214.1
2017-Nov-16 02:38N 49°19' W 004°49'214.0
2017-Nov-16 02:30N 49°18' W 004°52'813.9
2017-Nov-16 01:57N 49°15' W 005°02'713.9
2017-Nov-16 01:27N 49°12' W 005°12'713.7
2017-Nov-16 00:56N 49°10' W 005°22'613.5
2017-Nov-16 00:30N 49°08' W 005°31'713.4
2017-Nov-15 23:59N 49°05' W 005°41'713.0
2017-Nov-15 23:28N 49°03' W 005°50'712.8
2017-Nov-15 22:53N 48°60' W 006°01'512.5
2017-Nov-15 22:27N 48°58' W 006°08'612.1
2017-Nov-15 21:59N 48°56' W 006°16'712.0
2017-Nov-15 21:27N 48°54' W 006°26'611.8
2017-Nov-15 20:57N 48°53' W 006°34'511.7
2017-Nov-15 20:30N 48°51' W 006°42'1011.7
2017-Nov-15 19:39N 48°49' W 006°57'  

Dump ship's entire track history